Time;durP1;ratioP1;P1;durP2;ratioP2;P2;SDS_P1;SDS_P2;PMS_P1;PMS_P2;Temp;Humidity;BMP_temperature;BMP_pressure;BME280_temperature;BME280_humidity;BME280_pressure;Samples;Min_cycle;Max_cycle;Signal;HPM_P1;HPM_P2
2022/06/18 00:00:48;;;;;;;0.40;0.20;;;;;;;19.69;72.99;100675.84;4995363;28;20477;-49
2022/06/18 00:03:15;;;;;;;0.40;0.20;;;;;;;19.48;73.51;100672.59;4990049;28;20485;-49
2022/06/18 00:05:43;;;;;;;0.40;0.20;;;;;;;19.29;75.00;100666.53;4984524;28;20580;-49
2022/06/18 00:08:30;;;;;;;0.40;0.20;;;;;;;19.37;74.65;100667.81;4995556;28;20942;-49
2022/06/18 00:13:49;;;;;;;0.40;0.20;;;;;;;19.34;74.77;100665.31;4982833;28;20481;-49
2022/06/18 00:16:18;;;;;;;0.40;0.20;;;;;;;19.14;75.50;100663.78;4994292;28;20962;-50
2022/06/18 00:18:46;;;;;;;0.40;0.20;;;;;;;19.08;75.95;100664.16;4978150;28;20550;-50
2022/06/18 00:21:16;;;;;;;0.40;0.20;;;;;;;19.06;75.98;100666.06;5022752;28;20871;-49
2022/06/18 00:23:43;;;;;;;0.40;0.20;;;;;;;19.00;76.46;100665.53;4985125;28;20454;-50
2022/06/18 00:26:10;;;;;;;0.40;0.20;;;;;;;19.10;75.85;100673.00;4995078;28;20563;-50
2022/06/18 00:28:37;;;;;;;0.40;0.20;;;;;;;18.87;76.90;100670.75;4991490;28;20454;-49
2022/06/18 00:31:04;;;;;;;0.40;0.20;;;;;;;18.82;77.38;100667.47;4992414;28;20526;-49
2022/06/18 00:33:30;;;;;;;0.40;0.20;;;;;;;18.74;77.70;100670.56;4984991;28;20457;-50
2022/06/18 00:36:03;;;;;;;0.40;0.20;;;;;;;18.67;77.78;100668.31;4992516;28;20453;-49
2022/06/18 00:38:35;;;;;;;0.40;0.20;;;;;;;18.58;78.64;100667.84;4994970;28;20942;-49
2022/06/18 00:41:04;;;;;;;0.40;0.20;;;;;;;18.40;79.10;100665.31;4994892;28;20469;-49
2022/06/18 00:43:42;;;;;;;0.40;0.20;;;;;;;18.59;78.47;100656.09;4977916;28;20454;-49
2022/06/18 00:46:30;;;;;;;0.40;0.20;;;;;;;18.51;78.74;100657.50;4983458;28;20485;-49
2022/06/18 00:49:11;;;;;;;0.40;0.20;;;;;;;18.56;78.33;100663.50;4994624;28;20532;-49
2022/06/18 00:51:44;;;;;;;0.40;0.20;;;;;;;18.38;79.19;100664.53;4992212;28;20477;-49
2022/06/18 00:54:21;;;;;;;0.40;0.20;;;;;;;18.46;79.05;100668.50;4994615;28;20485;-49
2022/06/18 00:57:11;;;;;;;0.40;0.20;;;;;;;18.48;78.90;100660.34;4994465;28;20450;-50
2022/06/18 00:59:37;;;;;;;0.40;0.20;;;;;;;18.34;79.68;100661.97;4994642;28;20847;-49
2022/06/18 01:02:04;;;;;;;0.40;0.20;;;;;;;18.47;79.20;100662.16;4988775;28;20541;-49
2022/06/18 01:04:34;;;;;;;0.40;0.20;;;;;;;18.40;79.26;100663.47;4987641;28;20499;-50
2022/06/18 01:07:27;;;;;;;0.40;0.20;;;;;;;18.11;80.55;100661.50;4994331;28;20493;-50
2022/06/18 01:09:54;;;;;;;0.40;0.20;;;;;;;18.18;80.22;100661.06;4981821;28;20488;-50
2022/06/18 01:12:21;;;;;;;0.40;0.20;;;;;;;18.12;80.26;100655.16;4986495;28;20478;-50
2022/06/18 01:14:51;;;;;;;0.40;0.20;;;;;;;17.99;81.03;100650.44;4986982;28;20451;-50
2022/06/18 01:17:18;;;;;;;0.40;0.20;;;;;;;17.85;81.52;100647.63;4976067;28;20947;-49
2022/06/18 01:19:49;;;;;;;0.40;0.20;;;;;;;17.95;81.24;100648.84;4980909;28;20966;-50
2022/06/18 01:22:25;;;;;;;0.77;0.77;;;;;;;17.75;82.06;100651.72;4985739;28;20517;-50
2022/06/18 01:24:52;;;;;;;0.40;0.20;;;;;;;17.81;81.65;100640.63;4993939;28;20489;-49
2022/06/18 01:27:19;;;;;;;0.40;0.20;;;;;;;17.96;81.59;100645.22;4986644;28;20578;-50
2022/06/18 01:29:46;;;;;;;0.40;0.20;;;;;;;17.96;81.74;100650.63;4967155;28;20962;-49
2022/06/18 01:32:15;;;;;;;0.40;0.20;;;;;;;17.81;82.15;100654.09;4985910;28;20486;-50
2022/06/18 01:34:44;;;;;;;0.40;0.20;;;;;;;17.89;81.72;100646.50;4968649;28;20946;-50
2022/06/18 01:37:12;;;;;;;0.40;0.20;;;;;;;17.70;82.28;100640.38;4993619;28;20445;-50
2022/06/18 01:39:43;;;;;;;0.40;0.20;;;;;;;17.78;82.33;100648.88;4993904;28;20449;-50
2022/06/18 01:42:22;;;;;;;0.40;0.30;;;;;;;17.52;83.01;100643.94;4986780;28;20480;-49
2022/06/18 01:45:11;;;;;;;0.40;0.20;;;;;;;17.59;83.16;100646.25;4989461;28;20446;-49
2022/06/18 01:47:42;;;;;;;0.40;0.20;;;;;;;17.56;83.37;100635.66;4980868;28;20458;-50
2022/06/18 01:50:18;;;;;;;0.40;0.20;;;;;;;17.63;83.08;100639.75;4991331;28;20463;-49
2022/06/18 01:52:53;;;;;;;0.40;0.20;;;;;;;17.58;83.35;100640.97;4989049;28;20457;-50
2022/06/18 01:55:25;;;;;;;0.40;0.20;;;;;;;17.56;84.23;100634.81;4993185;28;20453;-50
2022/06/18 01:57:57;;;;;;;0.40;0.20;;;;;;;17.46;83.95;100635.28;4993460;28;20445;-50
2022/06/18 02:00:26;;;;;;;0.40;0.20;;;;;;;17.55;84.23;100642.00;4993054;28;20473;-49
2022/06/18 02:02:54;;;;;;;0.40;0.20;;;;;;;17.28;85.12;100636.22;4991157;28;20457;-48
2022/06/18 02:05:21;;;;;;;0.40;0.20;;;;;;;17.25;85.47;100627.41;4989433;28;20453;-49
2022/06/18 02:07:49;;;;;;;0.40;0.20;;;;;;;17.41;85.18;100625.72;4993146;28;20927;-49
2022/06/18 02:10:39;;;;;;;0.40;0.20;;;;;;;17.26;85.71;100627.34;4981353;28;20458;-50
2022/06/18 02:13:06;;;;;;;0.40;0.20;;;;;;;17.32;85.62;100632.41;4975806;28;20513;-50
2022/06/18 02:15:38;;;;;;;0.40;0.20;;;;;;;17.42;86.04;100632.81;4992043;28;20499;-49
2022/06/18 02:18:08;;;;;;;0.40;0.20;;;;;;;17.10;86.67;100635.31;4984428;28;20450;-49
2022/06/18 02:20:42;;;;;;;0.40;0.20;;;;;;;17.02;87.36;100634.84;4990643;28;20839;-49
2022/06/18 02:23:08;;;;;;;0.40;0.20;;;;;;;17.20;86.67;100633.03;4980461;28;20485;-50
2022/06/18 02:25:35;;;;;;;0.40;0.30;;;;;;;16.97;88.17;100638.69;4993136;28;20525;-49
2022/06/18 02:28:12;;;;;;;0.40;0.20;;;;;;;17.09;87.93;100632.69;4990436;28;20489;-50
2022/06/18 02:30:38;;;;;;;0.40;0.20;;;;;;;16.83;88.88;100624.09;4992949;28;20520;-50
2022/06/18 02:33:08;;;;;;;0.40;0.20;;;;;;;17.04;88.27;100627.56;4991858;28;20831;-49
2022/06/18 02:35:36;;;;;;;0.40;0.20;;;;;;;17.07;88.12;100621.16;4991936;28;20486;-48
2022/06/18 02:38:15;;;;;;;0.40;0.20;;;;;;;17.14;87.79;100625.31;4992814;28;20507;-48
2022/06/18 02:40:42;;;;;;;0.40;0.20;;;;;;;17.10;87.72;100618.31;4992381;28;20543;-50
2022/06/18 02:43:09;;;;;;;0.40;0.20;;;;;;;17.09;88.12;100619.28;4983203;28;20488;-49
2022/06/18 02:45:37;;;;;;;0.40;0.20;;;;;;;17.10;87.66;100612.94;4982123;28;20511;-49
2022/06/18 02:48:05;;;;;;;0.40;0.20;;;;;;;17.07;87.79;100607.72;4993039;28;20449;-50
2022/06/18 02:50:35;;;;;;;0.40;0.20;;;;;;;17.38;86.58;100609.72;4992725;28;20469;-49
2022/06/18 02:53:02;;;;;;;0.40;0.20;;;;;;;17.12;87.95;100609.22;4987167;28;20575;-50
2022/06/18 02:55:37;;;;;;;0.40;0.20;;;;;;;17.06;87.85;100611.38;4977311;28;21016;-49
2022/06/18 02:58:20;;;;;;;0.40;0.20;;;;;;;16.94;88.46;100617.34;4976767;28;20456;-49
2022/06/18 03:00:53;;;;;;;0.40;0.20;;;;;;;16.90;88.58;100623.81;4968179;28;20489;-49
2022/06/18 03:03:22;;;;;;;0.40;0.20;;;;;;;17.04;87.77;100622.19;4992587;28;20520;-50
2022/06/18 03:05:52;;;;;;;0.40;0.20;;;;;;;16.98;87.93;100614.44;4982709;28;20576;-49
2022/06/18 03:08:20;;;;;;;0.40;0.20;;;;;;;17.15;87.29;100610.91;4985497;28;20462;-48
2022/06/18 03:13:44;;;;;;;0.40;0.20;;;;;;;17.07;87.22;100616.66;4941024;28;20455;-48
2022/06/18 03:16:13;;;;;;;0.40;0.20;;;;;;;16.98;87.93;100613.56;4987424;28;20446;-49
2022/06/18 03:18:42;;;;;;;0.40;0.20;;;;;;;17.01;87.36;100618.81;4984220;28;20492;-50
2022/06/18 03:21:15;;;;;;;0.40;0.20;;;;;;;17.04;87.39;100618.63;4992357;28;21058;-49
2022/06/18 03:23:43;;;;;;;0.40;0.20;;;;;;;16.94;87.83;100622.72;4988610;28;20457;-49
2022/06/18 03:26:09;;;;;;;0.40;0.20;;;;;;;17.05;87.32;100623.06;4989159;28;20489;-50
2022/06/18 03:28:36;;;;;;;0.40;0.20;;;;;;;17.03;87.20;100625.84;4989057;28;20489;-50
2022/06/18 03:31:03;;;;;;;0.40;0.20;;;;;;;16.94;87.31;100612.84;4992260;28;20533;-49
2022/06/18 03:33:30;;;;;;;0.40;0.20;;;;;;;16.76;88.28;100622.69;4992312;28;20453;-49
2022/06/18 03:35:57;;;;;;;0.40;0.20;;;;;;;16.75;88.65;100626.31;4987137;28;20509;-49
2022/06/18 03:38:24;;;;;;;0.50;0.40;;;;;;;16.68;89.07;100619.50;4983506;28;20450;-49
2022/06/18 03:40:51;;;;;;;0.40;0.20;;;;;;;16.80;88.82;100618.03;4992324;28;20473;-48
2022/06/18 03:43:20;;;;;;;0.40;0.20;;;;;;;16.96;88.07;100626.19;4990057;28;20453;-48
2022/06/18 03:45:49;;;;;;;0.40;0.20;;;;;;;16.96;88.62;100631.56;4982719;28;20516;-48
2022/06/18 03:48:27;;;;;;;0.40;0.20;;;;;;;17.00;88.27;100635.88;4992577;28;20828;-48
2022/06/18 03:50:54;;;;;;;0.40;0.20;;;;;;;17.20;87.53;100640.22;4992367;28;20532;-49
2022/06/18 03:53:22;;;;;;;0.40;0.20;;;;;;;17.15;87.43;100635.09;4983192;28;20457;-48
2022/06/18 03:55:49;;;;;;;0.40;0.20;;;;;;;17.10;88.53;100634.44;4995620;28;20457;-49
2022/06/18 03:58:17;;;;;;;2.20;2.10;;;;;;;17.10;88.40;100626.38;4995294;28;20997;-48
2022/06/18 04:00:44;;;;;;;0.40;0.20;;;;;;;17.09;88.63;100630.88;4995529;28;20485;-49
2022/06/18 04:03:11;;;;;;;0.40;0.20;;;;;;;17.32;87.94;100627.03;4989896;28;20461;-48
2022/06/18 04:05:40;;;;;;;0.40;0.20;;;;;;;17.44;86.91;100623.72;4983854;28;20454;-48
2022/06/18 04:08:11;;;;;;;0.40;0.20;;;;;;;17.48;86.77;100628.00;4988666;28;20486;-49
2022/06/18 04:10:38;;;;;;;0.40;0.20;;;;;;;17.38;87.33;100618.66;4989778;28;21049;-49
2022/06/18 04:13:05;;;;;;;0.40;0.20;;;;;;;17.47;87.29;100615.50;4989385;28;20541;-49
2022/06/18 04:15:32;;;;;;;0.40;0.20;;;;;;;17.82;85.92;100615.53;4985993;28;20504;-49
2022/06/18 04:17:59;;;;;;;0.40;0.20;;;;;;;17.87;86.22;100615.25;4984865;28;20458;-49
2022/06/18 04:20:32;;;;;;;0.40;0.20;;;;;;;17.83;86.38;100617.25;4978560;28;20490;-49
2022/06/18 04:23:00;;;;;;;0.40;0.20;;;;;;;17.89;86.49;100613.34;4979576;28;20524;-50
2022/06/18 04:25:27;;;;;;;0.40;0.20;;;;;;;17.92;86.00;100616.75;4982900;28;20454;-49
2022/06/18 04:27:57;;;;;;;0.40;0.20;;;;;;;18.13;86.03;100622.78;4982946;28;20520;-49
2022/06/18 04:30:29;;;;;;;0.40;0.20;;;;;;;18.43;84.70;100619.38;4993060;28;20445;-49
2022/06/18 04:32:58;;;;;;;0.40;0.20;;;;;;;18.43;84.93;100617.53;4993986;28;20445;-49
2022/06/18 04:35:25;;;;;;;0.40;0.20;;;;;;;18.70;83.81;100620.53;4994942;28;20508;-50
2022/06/18 04:37:52;;;;;;;0.40;0.20;;;;;;;18.82;83.57;100619.84;4994704;28;20507;-50
2022/06/18 04:40:31;;;;;;;0.40;0.20;;;;;;;19.14;81.83;100617.97;4995068;28;20453;-49
2022/06/18 04:43:18;;;;;;;0.40;0.20;;;;;;;19.21;80.86;100613.97;4969582;28;20530;-49
2022/06/18 04:45:45;;;;;;;0.40;0.20;;;;;;;19.60;78.00;100611.66;4985659;28;20446;-49
2022/06/18 04:48:13;;;;;;;0.40;0.30;;;;;;;19.79;76.53;100607.75;4983717;28;21002;-49
2022/06/18 04:50:40;;;;;;;0.40;0.20;;;;;;;19.94;75.54;100602.38;4991869;28;20470;-49
2022/06/18 04:53:10;;;;;;;0.40;0.20;;;;;;;20.18;75.58;100614.34;4994900;28;20453;-49
2022/06/18 04:55:37;;;;;;;0.40;0.20;;;;;;;20.51;73.36;100608.63;4994584;28;20461;-49
2022/06/18 04:58:04;;;;;;;0.40;0.20;;;;;;;20.38;73.39;100605.81;4994599;28;20441;-49
2022/06/18 05:00:31;;;;;;;0.40;0.20;;;;;;;20.62;73.49;100605.25;5009495;22;20512;-54
2022/06/18 05:02:57;;;;;;;0.40;0.20;;;;;;;20.51;73.70;100608.63;5005765;28;20878;-54
2022/06/18 05:05:26;;;;;;;0.40;0.20;;;;;;;20.74;73.19;100600.88;5013764;28;20535;-54
2022/06/18 05:07:53;;;;;;;0.40;0.20;;;;;;;20.70;72.40;100605.63;5014098;28;20488;-54
2022/06/18 05:10:22;;;;;;;0.40;0.20;;;;;;;20.99;71.76;100606.41;5005349;28;20857;-54
2022/06/18 05:12:49;;;;;;;0.40;0.20;;;;;;;21.13;71.22;100609.03;4996375;28;20504;-54
2022/06/18 05:15:16;;;;;;;0.40;0.20;;;;;;;21.17;71.77;100599.75;4996600;28;20453;-54
2022/06/18 05:17:44;;;;;;;0.40;0.30;;;;;;;21.24;70.91;100605.59;4998250;28;20505;-53
2022/06/18 05:20:20;;;;;;;0.40;0.20;;;;;;;21.36;70.26;100610.19;5004412;28;20508;-52
2022/06/18 05:22:47;;;;;;;0.40;0.20;;;;;;;21.86;68.66;100595.00;5003435;28;20465;-52
2022/06/18 05:25:14;;;;;;;0.40;0.20;;;;;;;21.99;68.21;100595.88;4996376;28;20986;-54
2022/06/18 05:27:42;;;;;;;0.40;0.20;;;;;;;21.92;68.75;100596.41;5005561;28;20857;-54
2022/06/18 05:30:12;;;;;;;0.40;0.20;;;;;;;21.77;69.63;100591.09;4998135;28;20885;-53
2022/06/18 05:32:39;;;;;;;0.40;0.20;;;;;;;21.79;70.26;100591.00;5002880;28;20476;-53
2022/06/18 05:35:06;;;;;;;0.40;0.20;;;;;;;22.33;68.78;100590.75;5001205;28;20562;-54
2022/06/18 05:37:34;;;;;;;3.27;2.83;;;;;;;22.45;69.40;100584.44;5008016;28;20445;-53
2022/06/18 05:40:03;;;;;;;0.40;0.20;;;;;;;22.76;68.33;100589.34;5006868;28;20457;-55
2022/06/18 05:42:30;;;;;;;0.40;0.30;;;;;;;22.50;68.44;100576.88;5002964;28;20469;-56
2022/06/18 05:44:56;;;;;;;0.40;0.30;;;;;;;22.39;69.86;100585.78;4995698;28;20453;-56
2022/06/18 05:47:26;;;;;;;0.40;0.20;;;;;;;22.35;69.86;100576.16;4996824;28;20928;-56
2022/06/18 05:49:53;;;;;;;0.40;0.20;;;;;;;22.77;68.94;100585.66;5000842;28;20919;-56
2022/06/18 05:52:20;;;;;;;0.40;0.20;;;;;;;22.51;69.70;100577.72;4999430;28;20543;-56
2022/06/18 05:54:50;;;;;;;0.40;0.20;;;;;;;23.14;68.31;100573.91;4996910;28;20481;-54
2022/06/18 05:57:18;;;;;;;0.40;0.20;;;;;;;23.59;65.99;100573.09;4996193;28;20507;-54
2022/06/18 05:59:46;;;;;;;0.40;0.20;;;;;;;23.61;64.90;100576.56;5005589;28;20542;-54
2022/06/18 06:02:15;;;;;;;0.40;0.20;;;;;;;23.63;64.06;100574.59;5000921;28;20546;-54
2022/06/18 06:04:42;;;;;;;0.40;0.20;;;;;;;24.06;62.35;100586.59;5003042;28;20522;-54
2022/06/18 06:07:13;;;;;;;0.40;0.20;;;;;;;23.91;62.13;100581.41;5010032;28;20487;-54
2022/06/18 06:12:26;;;;;;;0.40;0.20;;;;;;;23.63;61.99;100580.03;5000881;28;20531;-55
2022/06/18 06:14:53;;;;;;;0.40;0.20;;;;;;;23.97;60.61;100581.91;4997911;28;20459;-54
2022/06/18 06:17:22;;;;;;;0.60;0.60;;;;;;;24.41;58.36;100572.94;5000240;28;20456;-55
2022/06/18 06:19:49;;;;;;;0.63;0.63;;;;;;;24.90;57.19;100582.44;5008573;28;20480;-55
2022/06/18 06:22:16;;;;;;;0.40;0.20;;;;;;;25.01;57.31;100580.59;4996449;28;20540;-55
2022/06/18 06:24:43;;;;;;;0.40;0.20;;;;;;;24.85;58.45;100580.13;5006513;28;20461;-55
2022/06/18 06:27:10;;;;;;;0.40;0.20;;;;;;;24.66;57.79;100578.06;5006989;28;21050;-55
2022/06/18 06:29:37;;;;;;;0.40;0.20;;;;;;;25.16;56.45;100573.00;5003635;28;20870;-55
2022/06/18 06:32:04;;;;;;;0.40;0.20;;;;;;;25.13;55.97;100577.84;4993205;28;20981;-55
2022/06/18 06:34:31;;;;;;;0.40;0.20;;;;;;;24.89;57.67;100565.28;5001816;28;20457;-55
2022/06/18 06:36:58;;;;;;;0.40;0.20;;;;;;;25.42;56.22;100565.31;5005445;28;20476;-55
2022/06/18 06:39:25;;;;;;;0.40;0.20;;;;;;;25.55;55.24;100565.97;4993868;28;20955;-55
2022/06/18 06:41:51;;;;;;;0.40;0.20;;;;;;;25.60;55.14;100565.56;4997452;28;20473;-56
2022/06/18 06:44:18;;;;;;;0.40;0.20;;;;;;;25.55;55.39;100570.56;5011664;28;20460;-55
2022/06/18 06:46:45;;;;;;;0.40;0.20;;;;;;;25.96;54.48;100569.69;4997985;28;20489;-55
2022/06/18 06:49:11;;;;;;;0.40;0.20;;;;;;;25.63;53.85;100565.28;5002230;28;20957;-55
2022/06/18 06:51:38;;;;;;;0.40;0.20;;;;;;;25.98;53.41;100564.97;5005878;28;20477;-55
2022/06/18 06:54:07;;;;;;;0.50;0.30;;;;;;;26.21;51.40;100563.78;4995194;28;20468;-55
2022/06/18 06:59:20;;;;;;;0.40;0.20;;;;;;;26.15;51.96;100552.56;5003195;28;20449;-55
2022/06/18 07:01:46;;;;;;;0.40;0.20;;;;;;;26.15;51.85;100552.56;5009681;28;20476;-55
2022/06/18 07:04:14;;;;;;;0.40;0.20;;;;;;;26.67;50.81;100556.06;5006973;28;20531;-55
2022/06/18 07:06:41;;;;;;;0.40;0.20;;;;;;;26.85;51.17;100548.88;5007119;28;20580;-55
2022/06/18 07:09:08;;;;;;;0.57;0.50;;;;;;;26.75;51.24;100556.22;5000176;28;20459;-55
2022/06/18 07:11:37;;;;;;;0.40;0.20;;;;;;;27.01;51.75;100556.56;5004919;28;20477;-55
2022/06/18 07:14:05;;;;;;;0.40;0.20;;;;;;;26.74;50.66;100558.09;5012519;28;20449;-55
2022/06/18 07:16:32;;;;;;;0.40;0.20;;;;;;;26.71;51.54;100550.16;5000926;28;20452;-54
2022/06/18 07:18:59;;;;;;;0.40;0.20;;;;;;;26.99;50.45;100553.06;5005344;28;21008;-55
2022/06/18 07:21:26;;;;;;;0.40;0.20;;;;;;;27.23;49.90;100552.69;5011849;28;20885;-55
2022/06/18 07:23:53;;;;;;;0.40;0.20;;;;;;;27.33;49.69;100557.13;5031944;28;20457;-55
2022/06/18 07:26:21;;;;;;;0.40;0.20;;;;;;;27.47;49.42;100549.50;5010908;28;20511;-55
2022/06/18 07:28:48;;;;;;;0.40;0.20;;;;;;;27.12;48.90;100554.53;5011086;28;21050;-55
2022/06/18 07:31:35;;;;;;;0.50;0.47;;;;;;;27.58;48.16;100552.06;5033916;28;20495;-55
2022/06/18 07:34:05;;;;;;;0.40;0.20;;;;;;;27.66;47.51;100544.88;5005154;28;20492;-55
2022/06/18 07:36:32;;;;;;;0.40;0.20;;;;;;;27.70;48.12;100549.06;5006130;28;20457;-55
2022/06/18 07:39:01;;;;;;;0.40;0.20;;;;;;;27.65;48.48;100534.09;4997183;28;20456;-55
2022/06/18 07:41:52;;;;;;;0.40;0.20;;;;;;;28.00;46.88;100538.91;4999098;28;20531;-55
2022/06/18 07:44:20;;;;;;;0.40;0.20;;;;;;;27.91;47.47;100542.50;4998287;28;20456;-56
2022/06/18 07:46:47;;;;;;;0.40;0.30;;;;;;;28.17;48.60;100537.22;5005542;28;20472;-56
2022/06/18 07:49:17;;;;;;;0.40;0.20;;;;;;;28.24;46.47;100539.22;4998694;28;20466;-55
2022/06/18 07:51:45;;;;;;;0.40;0.20;;;;;;;28.55;46.97;100533.47;4998917;28;20477;-55
2022/06/18 07:54:14;;;;;;;0.40;0.20;;;;;;;28.77;45.10;100527.53;5000178;28;20523;-56
2022/06/18 07:56:41;;;;;;;0.40;0.20;;;;;;;29.20;43.81;100525.94;5003961;28;21017;-55
2022/06/18 07:59:08;;;;;;;0.40;0.20;;;;;;;29.28;43.26;100528.72;5009156;28;20452;-56
2022/06/18 08:01:35;;;;;;;0.40;0.20;;;;;;;29.09;43.30;100528.91;5009861;28;20484;-56
2022/06/18 08:04:01;;;;;;;0.40;0.30;;;;;;;29.08;42.52;100522.59;5004084;28;20460;-56
2022/06/18 08:06:29;;;;;;;0.40;0.20;;;;;;;29.30;42.83;100514.88;5010457;28;20526;-56
2022/06/18 08:08:55;;;;;;;0.40;0.20;;;;;;;29.43;42.59;100516.19;4991197;28;20525;-56
2022/06/18 08:11:23;;;;;;;0.40;0.20;;;;;;;29.40;42.62;100507.44;5004204;28;20939;-56
2022/06/18 08:13:50;;;;;;;0.40;0.20;;;;;;;29.36;43.78;100512.38;4997743;28;20450;-56
2022/06/18 08:16:17;;;;;;;0.40;0.30;;;;;;;29.43;43.88;100505.22;5010680;28;20541;-55
2022/06/18 08:18:44;;;;;;;0.40;0.30;;;;;;;29.81;43.56;100505.00;5007030;28;20445;-55
2022/06/18 08:21:19;;;;;;;0.40;0.20;;;;;;;29.36;44.21;100493.19;5014687;28;20468;-55
2022/06/18 08:23:47;;;;;;;0.40;0.20;;;;;;;29.36;43.10;100497.81;5013726;28;20467;-55
2022/06/18 08:26:14;;;;;;;0.40;0.30;;;;;;;29.34;43.31;100483.44;5014724;28;20508;-55
2022/06/18 08:28:41;;;;;;;0.40;0.30;;;;;;;30.18;42.70;100485.50;5014643;28;20911;-55
2022/06/18 08:31:09;;;;;;;0.40;0.30;;;;;;;30.18;41.74;100485.50;5014387;28;20472;-55
2022/06/18 08:33:36;;;;;;;0.40;0.20;;;;;;;30.23;41.93;100483.97;5014626;28;20479;-56
2022/06/18 08:36:08;;;;;;;0.40;0.30;;;;;;;30.42;41.52;100487.44;5014667;28;20452;-56
2022/06/18 08:38:36;;;;;;;0.40;0.20;;;;;;;30.34;42.39;100477.31;5014340;28;20518;-55
2022/06/18 08:41:31;;;;;;;0.40;0.30;;;;;;;30.58;41.89;100471.03;5014581;28;20530;-55
2022/06/18 08:44:35;;;;;;;0.40;0.20;;;;;;;31.06;40.41;100475.72;5014331;28;20445;-55
2022/06/18 08:47:17;;;;;;;1.50;1.40;;;;;;;30.69;40.34;100470.72;5006742;28;20813;-55
2022/06/18 08:50:08;;;;;;;0.40;0.30;;;;;;;30.86;40.09;100477.97;5014560;28;20448;-55
2022/06/18 08:52:52;;;;;;;0.40;0.30;;;;;;;31.19;40.77;100470.59;4990813;28;20992;-55
2022/06/18 08:55:50;;;;;;;0.40;0.20;;;;;;;31.53;39.96;100472.31;5014460;28;20883;-56
2022/06/18 08:58:42;;;;;;;0.40;0.20;;;;;;;31.86;39.53;100470.34;5013196;28;20460;-56
2022/06/18 09:01:24;;;;;;;0.40;0.20;;;;;;;31.39;40.16;100467.53;5014078;28;20484;-56
2022/06/18 09:04:15;;;;;;;0.40;0.30;;;;;;;31.76;39.57;100461.44;5014275;28;20452;-55
2022/06/18 09:07:00;;;;;;;0.40;0.30;;;;;;;32.12;38.97;100461.81;5013942;28;20536;-56
2022/06/18 09:09:51;;;;;;;0.40;0.30;;;;;;;32.00;38.65;100453.09;5009024;28;20452;-56
2022/06/18 09:12:47;;;;;;;0.40;0.30;;;;;;;31.46;39.44;100454.78;4993685;28;20556;-56
2022/06/18 09:15:28;;;;;;;0.40;0.30;;;;;;;31.89;39.20;100460.88;4989344;28;20449;-55
2022/06/18 09:18:02;;;;;;;0.40;0.30;;;;;;;31.94;39.81;100452.97;5006223;28;20470;-56
2022/06/18 09:20:37;;;;;;;0.40;0.30;;;;;;;32.14;39.33;100462.47;5013781;28;20826;-56
2022/06/18 09:23:30;;;;;;;0.40;0.30;;;;;;;31.82;39.44;100447.84;5013933;28;20949;-56
2022/06/18 09:25:59;;;;;;;0.40;0.30;;;;;;;32.30;38.84;100440.41;5013556;28;20487;-55
2022/06/18 09:28:32;;;;;;;0.40;0.30;;;;;;;32.42;38.94;100435.34;5013515;28;20490;-56
2022/06/18 09:31:08;;;;;;;0.40;0.30;;;;;;;32.37;37.96;100429.53;5013578;28;20496;-56
2022/06/18 09:33:43;;;;;;;0.50;0.30;;;;;;;32.24;37.99;100432.84;5013563;28;20448;-55
2022/06/18 09:36:24;;;;;;;0.40;0.27;;;;;;;32.47;37.53;100435.66;5013609;28;20473;-56
2022/06/18 09:39:06;;;;;;;0.50;0.40;;;;;;;32.38;37.21;100429.38;5013522;28;20447;-56
2022/06/18 09:41:42;;;;;;;0.40;0.30;;;;;;;32.59;36.53;100428.69;5006596;28;20465;-56
2022/06/18 09:44:33;;;;;;;0.40;0.30;;;;;;;32.80;36.73;100424.41;5000367;28;20456;-56
2022/06/18 09:47:08;;;;;;;0.40;0.30;;;;;;;32.60;37.34;100424.88;5000613;28;20428;-56
2022/06/18 09:49:35;;;;;;;0.40;0.30;;;;;;;32.22;37.46;100415.69;5012802;28;20917;-55
2022/06/18 09:52:10;;;;;;;0.50;0.37;;;;;;;32.36;36.80;100412.19;5006116;28;20477;-55
2022/06/18 09:54:45;;;;;;;0.40;0.30;;;;;;;32.65;36.86;100425.22;4994067;28;20462;-56
2022/06/18 09:57:15;;;;;;;0.40;0.30;;;;;;;32.49;37.40;100418.97;5002198;28;20447;-56
2022/06/18 09:59:48;;;;;;;0.40;0.30;;;;;;;32.90;36.69;100422.31;5008875;28;20909;-56
2022/06/18 10:02:26;;;;;;;0.40;0.30;;;;;;;33.36;36.54;100414.81;5012959;28;20527;-56
2022/06/18 10:07:48;;;;;;;0.40;0.20;;;;;;;33.56;36.26;100404.06;5001975;28;20459;-56
2022/06/18 10:10:21;;;;;;;0.40;0.30;;;;;;;33.65;35.37;100399.31;4991826;28;20452;-56
2022/06/18 10:12:55;;;;;;;0.40;0.20;;;;;;;33.46;35.84;100401.63;5013261;28;20416;-56
2022/06/18 10:15:23;;;;;;;0.40;0.30;;;;;;;33.67;35.49;100403.59;5012081;28;20507;-56
2022/06/18 10:18:02;;;;;;;0.40;0.30;;;;;;;33.60;34.77;100399.06;5004906;28;20470;-56
2022/06/18 10:20:52;;;;;;;0.40;0.30;;;;;;;33.67;34.83;100394.47;5012863;28;20521;-56
2022/06/18 10:23:24;;;;;;;0.40;0.30;;;;;;;33.67;34.43;100384.28;5012832;28;20457;-56
2022/06/18 10:26:10;;;;;;;0.40;0.30;;;;;;;33.70;34.74;100378.38;5012575;28;21031;-55
2022/06/18 10:28:53;;;;;;;0.40;0.33;;;;;;;34.26;33.72;100381.44;4997716;28;20544;-55
2022/06/18 10:31:34;;;;;;;0.40;0.20;;;;;;;34.03;33.40;100378.84;4999815;28;20450;-56
2022/06/18 10:34:01;;;;;;;0.40;0.20;;;;;;;34.43;33.62;100380.19;5012436;28;20459;-56
2022/06/18 10:36:40;;;;;;;0.40;0.30;;;;;;;34.89;34.02;100368.75;4997387;28;20865;-56
2022/06/18 10:39:34;;;;;;;0.40;0.30;;;;;;;35.14;33.58;100369.16;4994115;28;20995;-56
2022/06/18 10:42:12;;;;;;;0.63;0.63;;;;;;;34.71;32.44;100376.63;4988205;28;20469;-55
2022/06/18 10:45:05;;;;;;;0.60;0.60;;;;;;;34.85;31.42;100372.94;4991743;28;20488;-56
2022/06/18 10:47:36;;;;;;;0.40;0.30;;;;;;;35.01;31.97;100363.53;5003537;28;20432;-55
2022/06/18 10:50:13;;;;;;;0.40;0.30;;;;;;;34.10;33.12;100363.22;5004920;28;20439;-56
2022/06/18 10:52:40;;;;;;;0.40;0.30;;;;;;;34.41;31.25;100362.97;4991864;28;20483;-55
2022/06/18 10:55:19;;;;;;;0.40;0.30;;;;;;;34.82;31.81;100356.75;4993851;28;20511;-55
2022/06/18 10:57:48;;;;;;;0.40;0.30;;;;;;;34.96;31.34;100353.06;4993094;28;20446;-56
2022/06/18 11:00:25;;;;;;;0.40;0.30;;;;;;;35.36;30.74;100345.06;4995481;28;20434;-56
2022/06/18 11:02:55;;;;;;;0.40;0.30;;;;;;;35.37;30.98;100346.78;5025128;23;20507;-51
2022/06/18 11:05:31;;;;;;;0.40;0.30;;;;;;;35.40;30.46;100332.56;5008045;28;20511;-49
2022/06/18 11:08:01;;;;;;;0.40;0.30;;;;;;;35.27;30.40;100333.28;4999900;28;20488;-49
2022/06/18 11:10:38;;;;;;;0.40;0.30;;;;;;;35.22;29.68;100329.41;5017507;28;20475;-50
2022/06/18 11:13:18;;;;;;;0.40;0.30;;;;;;;35.15;30.79;100332.16;5017616;28;21025;-49
2022/06/18 11:15:44;;;;;;;0.40;0.30;;;;;;;35.00;30.18;100326.75;5008272;28;20472;-49
2022/06/18 11:18:18;;;;;;;0.60;0.60;;;;;;;35.08;31.78;100322.09;5010779;28;20448;-49
2022/06/18 11:20:58;;;;;;;0.40;0.30;;;;;;;35.27;31.43;100316.72;5004246;28;20480;-49
2022/06/18 11:23:26;;;;;;;0.40;0.30;;;;;;;35.49;30.75;100319.38;5010416;28;20490;-49
2022/06/18 11:25:56;;;;;;;0.40;0.30;;;;;;;35.54;30.57;100309.44;5002468;28;20427;-49
2022/06/18 11:28:25;;;;;;;0.40;0.30;;;;;;;35.46;30.86;100311.50;5007418;28;20485;-48
2022/06/18 11:30:52;;;;;;;0.40;0.30;;;;;;;35.79;30.24;100309.75;5008968;28;20788;-49
2022/06/18 11:33:22;;;;;;;0.70;0.70;;;;;;;35.73;30.71;100309.72;5000984;28;20427;-49
2022/06/18 11:35:50;;;;;;;0.40;0.30;;;;;;;35.92;30.32;100308.97;5002584;28;20482;-49
2022/06/18 11:38:28;;;;;;;0.40;0.30;;;;;;;36.23;29.90;100305.63;5006210;28;20934;-49
2022/06/18 11:41:00;;;;;;;0.40;0.30;;;;;;;36.26;29.38;100296.91;5008906;28;20423;-49
2022/06/18 11:43:51;;;;;;;0.40;0.30;;;;;;;36.04;29.58;100292.59;4998435;28;20459;-49
2022/06/18 11:46:28;;;;;;;0.40;0.30;;;;;;;36.38;28.95;100283.31;5012237;28;20423;-50
2022/06/18 11:49:33;;;;;;;0.40;0.30;;;;;;;35.76;28.70;100282.47;5002331;28;20491;-49
2022/06/18 11:52:08;;;;;;;0.40;0.30;;;;;;;36.12;28.89;100273.03;5001506;28;20989;-49
2022/06/18 11:54:57;;;;;;;0.40;0.30;;;;;;;35.79;29.92;100261.84;5005320;28;20495;-49
2022/06/18 11:57:33;;;;;;;0.40;0.30;;;;;;;35.89;29.92;100271.47;5002931;28;20808;-49
2022/06/18 12:00:20;;;;;;;0.40;0.30;;;;;;;35.93;29.75;100262.78;5014227;28;20474;-49